sensor_id;sensor_type;location;lat;lon;timestamp;pressure;altitude;pressure_sealevel;temperature;humidity
51178;BME280;37243;49.814;8.652;2023-02-13T00:01:23;102335.72;;;25.92;29.17
51178;BME280;37243;49.814;8.652;2023-02-13T00:03:52;102343.16;;;25.92;29.07
51178;BME280;37243;49.814;8.652;2023-02-13T00:06:20;102333.81;;;25.93;28.69
51178;BME280;37243;49.814;8.652;2023-02-13T00:08:49;102336.84;;;25.91;28.64
51178;BME280;37243;49.814;8.652;2023-02-13T00:11:17;102344.28;;;25.91;28.91
51178;BME280;37243;49.814;8.652;2023-02-13T00:13:48;102330.53;;;25.91;28.79
51178;BME280;37243;49.814;8.652;2023-02-13T00:16:17;102325.03;;;25.91;29.13
51178;BME280;37243;49.814;8.652;2023-02-13T00:18:45;102327.78;;;25.91;28.88
51178;BME280;37243;49.814;8.652;2023-02-13T00:21:13;102327.78;;;25.91;29.00
51178;BME280;37243;49.814;8.652;2023-02-13T00:23:42;102336.03;;;25.91;29.31
51178;BME280;37243;49.814;8.652;2023-02-13T00:26:12;102333.25;;;25.91;28.57
51178;BME280;37243;49.814;8.652;2023-02-13T00:28:41;102331.59;;;25.90;29.05
51178;BME280;37243;49.814;8.652;2023-02-13T00:31:13;102328.84;;;25.90;28.87
51178;BME280;37243;49.814;8.652;2023-02-13T00:33:42;102325.28;;;25.89;29.28
51178;BME280;37243;49.814;8.652;2023-02-13T00:36:13;102333.53;;;25.89;29.31
51178;BME280;37243;49.814;8.652;2023-02-13T00:38:42;102334.34;;;25.90;28.76
51178;BME280;37243;49.814;8.652;2023-02-13T00:41:11;102334.34;;;25.90;29.21
51178;BME280;37243;49.814;8.652;2023-02-13T00:43:40;102332.69;;;25.89;28.55
51178;BME280;37243;49.814;8.652;2023-02-13T00:46:12;102339.84;;;25.90;28.91
51178;BME280;37243;49.814;8.652;2023-02-13T00:48:40;102335.44;;;25.89;28.50
51178;BME280;37243;49.814;8.652;2023-02-13T00:51:09;102339.31;;;25.88;28.85
51178;BME280;37243;49.814;8.652;2023-02-13T00:53:38;102328.31;;;25.88;28.93
51178;BME280;37243;49.814;8.652;2023-02-13T00:56:06;102329.94;;;25.89;28.58
51178;BME280;37243;49.814;8.652;2023-02-13T00:58:35;102343.44;;;25.90;28.81
51178;BME280;37243;49.814;8.652;2023-02-13T01:01:03;102331.91;;;25.88;28.78
51178;BME280;37243;49.814;8.652;2023-02-13T01:03:35;102332.69;;;25.89;29.00
51178;BME280;37243;49.814;8.652;2023-02-13T01:06:04;102334.34;;;25.90;29.01
51178;BME280;37243;49.814;8.652;2023-02-13T01:08:33;102331.91;;;25.88;29.15
51178;BME280;37243;49.814;8.652;2023-02-13T01:11:01;102333.53;;;25.89;28.32
51178;BME280;37243;49.814;8.652;2023-02-13T01:13:29;102336.56;;;25.88;29.03
51178;BME280;37243;49.814;8.652;2023-02-13T01:15:58;102331.06;;;25.88;28.28
51178;BME280;37243;49.814;8.652;2023-02-13T01:18:27;102328.31;;;25.88;29.08
51178;BME280;37243;49.814;8.652;2023-02-13T01:21:00;102326.41;;;25.88;28.39
51178;BME280;37243;49.814;8.652;2023-02-13T01:23:30;102325.56;;;25.88;28.72
51178;BME280;37243;49.814;8.652;2023-02-13T01:25:58;102325.56;;;25.88;28.65
51178;BME280;37243;49.814;8.652;2023-02-13T01:28:27;102336.56;;;25.88;28.21
51178;BME280;37243;49.814;8.652;2023-02-13T01:30:56;102333.81;;;25.88;28.92
51178;BME280;37243;49.814;8.652;2023-02-13T01:33:26;102330.25;;;25.87;28.55
51178;BME280;37243;49.814;8.652;2023-02-13T01:35:54;102337.66;;;25.87;28.91
51178;BME280;37243;49.814;8.652;2023-02-13T01:38:27;102334.91;;;25.87;28.97
51178;BME280;37243;49.814;8.652;2023-02-13T01:40:55;102334.91;;;25.87;29.00
51178;BME280;37243;49.814;8.652;2023-02-13T01:43:23;102335.75;;;25.87;28.20
51178;BME280;37243;49.814;8.652;2023-02-13T01:45:54;102333.00;;;25.87;28.47
51178;BME280;37243;49.814;8.652;2023-02-13T01:48:25;102323.91;;;25.87;28.12
51178;BME280;37243;49.814;8.652;2023-02-13T01:50:57;102328.88;;;25.85;28.80
51178;BME280;37243;49.814;8.652;2023-02-13T01:53:32;102330.50;;;25.86;28.57
51178;BME280;37243;49.814;8.652;2023-02-13T01:56:07;102324.19;;;25.85;28.16
51178;BME280;37243;49.814;8.652;2023-02-13T01:58:39;102320.63;;;25.85;28.51
51178;BME280;37243;49.814;8.652;2023-02-13T02:01:08;102324.47;;;25.84;28.52
51178;BME280;37243;49.814;8.652;2023-02-13T02:03:44;102328.59;;;25.86;28.13
51178;BME280;37243;49.814;8.652;2023-02-13T02:06:17;102327.75;;;25.86;28.59
51178;BME280;37243;49.814;8.652;2023-02-13T02:08:52;102323.09;;;25.86;28.22
51178;BME280;37243;49.814;8.652;2023-02-13T02:11:27;102326.13;;;25.85;28.57
51178;BME280;37243;49.814;8.652;2023-02-13T02:13:57;102321.47;;;25.85;28.47
51178;BME280;37243;49.814;8.652;2023-02-13T02:16:28;102323.38;;;25.85;28.82
51178;BME280;37243;49.814;8.652;2023-02-13T02:18:56;102320.63;;;25.85;28.78
51178;BME280;37243;49.814;8.652;2023-02-13T02:21:46;102326.13;;;25.85;28.50
51178;BME280;37243;49.814;8.652;2023-02-13T02:27:30;102313.47;;;25.84;28.12
51178;BME280;37243;49.814;8.652;2023-02-13T02:33:20;102310.72;;;25.84;28.56
51178;BME280;37243;49.814;8.652;2023-02-13T02:35:58;102303.59;;;25.83;28.60
51178;BME280;37243;49.814;8.652;2023-02-13T02:38:41;102306.34;;;25.83;28.75
51178;BME280;37243;49.814;8.652;2023-02-13T02:41:20;102297.78;;;25.84;28.56
51178;BME280;37243;49.814;8.652;2023-02-13T02:44:14;102297.78;;;25.84;28.69
51178;BME280;37243;49.814;8.652;2023-02-13T02:46:55;102300.84;;;25.83;28.46
51178;BME280;37243;49.814;8.652;2023-02-13T02:49:41;102307.97;;;25.84;28.27
51178;BME280;37243;49.814;8.652;2023-02-13T02:52:34;102310.19;;;25.82;28.08
51178;BME280;37243;49.814;8.652;2023-02-13T02:55:11;102310.72;;;25.84;28.11
51178;BME280;37243;49.814;8.652;2023-02-13T02:57:46;102304.13;;;25.85;28.06
51178;BME280;37243;49.814;8.652;2023-02-13T03:00:30;102305.22;;;25.84;28.31
51178;BME280;37243;49.814;8.652;2023-02-13T03:03:17;102314.28;;;25.84;28.32
51178;BME280;37243;49.814;8.652;2023-02-13T03:06:03;102314.28;;;25.84;28.35
51178;BME280;37243;49.814;8.652;2023-02-13T03:08:41;102312.63;;;25.83;28.17
51178;BME280;37243;49.814;8.652;2023-02-13T03:11:31;102307.97;;;25.84;28.73
51178;BME280;37243;49.814;8.652;2023-02-13T03:14:15;102311.84;;;25.83;28.25
51178;BME280;37243;49.814;8.652;2023-02-13T03:16:46;102313.47;;;25.84;28.31
51178;BME280;37243;49.814;8.652;2023-02-13T03:19:36;102313.47;;;25.84;28.30
51178;BME280;37243;49.814;8.652;2023-02-13T03:22:27;102317.34;;;25.83;28.63
51178;BME280;37243;49.814;8.652;2023-02-13T03:25:05;102316.22;;;25.84;28.03
51178;BME280;37243;49.814;8.652;2023-02-13T03:27:40;102316.22;;;25.84;28.35
51178;BME280;37243;49.814;8.652;2023-02-13T03:30:29;102307.13;;;25.83;28.10
51178;BME280;37243;49.814;8.652;2023-02-13T03:33:21;102328.34;;;25.83;28.59
51178;BME280;37243;49.814;8.652;2023-02-13T03:36:00;102325.59;;;25.83;28.39
51178;BME280;37243;49.814;8.652;2023-02-13T03:38:50;102323.63;;;25.83;28.65
51178;BME280;37243;49.814;8.652;2023-02-13T03:41:24;102324.47;;;25.84;28.11
51178;BME280;37243;49.814;8.652;2023-02-13T03:44:06;102322.00;;;25.82;28.47
51178;BME280;37243;49.814;8.652;2023-02-13T03:46:38;102318.97;;;25.84;28.65
51178;BME280;37243;49.814;8.652;2023-02-13T03:49:17;102324.47;;;25.84;28.18
51178;BME280;37243;49.814;8.652;2023-02-13T03:52:01;102318.97;;;25.84;28.70
51178;BME280;37243;49.814;8.652;2023-02-13T03:54:38;102319.25;;;25.82;28.40
51178;BME280;37243;49.814;8.652;2023-02-13T03:57:22;102316.22;;;25.84;28.51
51178;BME280;37243;49.814;8.652;2023-02-13T04:00:06;102318.97;;;25.84;28.00
51178;BME280;37243;49.814;8.652;2023-02-13T04:02:40;102318.13;;;25.83;28.45
51178;BME280;37243;49.814;8.652;2023-02-13T04:05:15;102318.97;;;25.84;28.50
51178;BME280;37243;49.814;8.652;2023-02-13T04:07:44;102313.47;;;25.84;28.17
51178;BME280;37243;49.814;8.652;2023-02-13T04:10:16;102318.97;;;25.84;28.54
51178;BME280;37243;49.814;8.652;2023-02-13T04:12:52;102317.34;;;25.83;27.92
51178;BME280;37243;49.814;8.652;2023-02-13T04:15:27;102324.47;;;25.84;27.91
51178;BME280;37243;49.814;8.652;2023-02-13T04:18:03;102324.47;;;25.84;27.94
51178;BME280;37243;49.814;8.652;2023-02-13T04:20:32;102325.28;;;25.84;28.12
51178;BME280;37243;49.814;8.652;2023-02-13T04:23:04;102318.97;;;25.84;28.42
51178;BME280;37243;49.814;8.652;2023-02-13T04:25:38;102321.72;;;25.84;28.08
51178;BME280;37243;49.814;8.652;2023-02-13T04:28:07;102324.47;;;25.84;28.58
51178;BME280;37243;49.814;8.652;2023-02-13T04:30:35;102320.88;;;25.83;28.75
51178;BME280;37243;49.814;8.652;2023-02-13T04:33:03;102317.88;;;25.85;28.29
51178;BME280;37243;49.814;8.652;2023-02-13T04:35:32;102307.97;;;25.84;28.37
51178;BME280;37243;49.814;8.652;2023-02-13T04:38:00;102315.13;;;25.85;28.39
51178;BME280;37243;49.814;8.652;2023-02-13T04:40:28;102316.22;;;25.84;28.75
51178;BME280;37243;49.814;8.652;2023-02-13T04:43:00;102314.00;;;25.86;28.47
51178;BME280;37243;49.814;8.652;2023-02-13T04:45:28;102311.53;;;25.84;28.45
51178;BME280;37243;49.814;8.652;2023-02-13T04:47:57;102314.00;;;25.86;28.08
51178;BME280;37243;49.814;8.652;2023-02-13T04:50:25;102309.34;;;25.86;28.79
51178;BME280;37243;49.814;8.652;2023-02-13T04:52:54;102307.41;;;25.87;28.24
51178;BME280;37243;49.814;8.652;2023-02-13T04:55:24;102305.75;;;25.86;28.16
51178;BME280;37243;49.814;8.652;2023-02-13T04:57:53;102305.75;;;25.86;28.49
51178;BME280;37243;49.814;8.652;2023-02-13T05:00:26;102303.84;;;25.86;28.13
51178;BME280;37243;49.814;8.652;2023-02-13T05:02:59;102306.31;;;25.88;28.75
51178;BME280;37243;49.814;8.652;2023-02-13T05:05:27;102300.00;;;25.87;28.87
51178;BME280;37243;49.814;8.652;2023-02-13T05:07:56;102309.06;;;25.88;28.34
51178;BME280;37243;49.814;8.652;2023-02-13T05:10:24;102309.06;;;25.88;28.28
51178;BME280;37243;49.814;8.652;2023-02-13T05:12:53;102308.25;;;25.87;28.37
51178;BME280;37243;49.814;8.652;2023-02-13T05:15:21;102307.41;;;25.87;28.95
51178;BME280;37243;49.814;8.652;2023-02-13T05:17:52;102304.41;;;25.88;28.68
51178;BME280;37243;49.814;8.652;2023-02-13T05:20:20;102303.56;;;25.88;29.02
51178;BME280;37243;49.814;8.652;2023-02-13T05:22:50;102302.75;;;25.87;28.63
51178;BME280;37243;49.814;8.652;2023-02-13T05:25:32;102303.84;;;25.86;28.78
51178;BME280;37243;49.814;8.652;2023-02-13T05:28:01;102296.41;;;25.87;28.48
51178;BME280;37243;49.814;8.652;2023-02-13T05:30:29;102310.69;;;25.89;28.63
51178;BME280;37243;49.814;8.652;2023-02-13T05:32:57;102305.19;;;25.89;28.78
51178;BME280;37243;49.814;8.652;2023-02-13T05:35:26;102300.00;;;25.87;29.02
51178;BME280;37243;49.814;8.652;2023-02-13T05:37:54;102302.44;;;25.89;28.28
51178;BME280;37243;49.814;8.652;2023-02-13T05:40:22;102294.19;;;25.89;28.19
51178;BME280;37243;49.814;8.652;2023-02-13T05:42:53;102292.56;;;25.88;28.39
51178;BME280;37243;49.814;8.652;2023-02-13T05:45:21;102298.91;;;25.88;28.14
51178;BME280;37243;49.814;8.652;2023-02-13T05:47:49;102287.91;;;25.88;28.45
51178;BME280;37243;49.814;8.652;2023-02-13T05:50:20;102299.69;;;25.89;28.05
51178;BME280;37243;49.814;8.652;2023-02-13T05:52:48;102299.69;;;25.89;28.70
51178;BME280;37243;49.814;8.652;2023-02-13T05:55:17;102292.56;;;25.88;28.15
51178;BME280;37243;49.814;8.652;2023-02-13T05:57:45;102294.19;;;25.89;28.41
51178;BME280;37243;49.814;8.652;2023-02-13T06:00:15;102299.69;;;25.89;28.84
51178;BME280;37243;49.814;8.652;2023-02-13T06:02:43;102296.94;;;25.89;28.77
51178;BME280;37243;49.814;8.652;2023-02-13T06:05:11;102299.69;;;25.89;28.42
51178;BME280;37243;49.814;8.652;2023-02-13T06:07:42;102292.56;;;25.88;28.76
51178;BME280;37243;49.814;8.652;2023-02-13T06:10:11;102287.91;;;25.88;28.39
51178;BME280;37243;49.814;8.652;2023-02-13T06:12:39;102294.19;;;25.89;28.77
51178;BME280;37243;49.814;8.652;2023-02-13T06:15:08;102287.06;;;25.88;28.43
51178;BME280;37243;49.814;8.652;2023-02-13T06:17:36;102294.19;;;25.89;28.80
51178;BME280;37243;49.814;8.652;2023-02-13T06:20:06;102295.03;;;25.89;28.36
51178;BME280;37243;49.814;8.652;2023-02-13T06:22:34;102291.44;;;25.89;28.63
51178;BME280;37243;49.814;8.652;2023-02-13T06:25:06;102293.13;;;25.90;28.20
51178;BME280;37243;49.814;8.652;2023-02-13T06:27:34;102299.69;;;25.89;28.78
51178;BME280;37243;49.814;8.652;2023-02-13T06:30:03;102294.19;;;25.89;28.42
51178;BME280;37243;49.814;8.652;2023-02-13T06:32:31;102305.19;;;25.89;28.35
51178;BME280;37243;49.814;8.652;2023-02-13T06:34:59;102303.56;;;25.88;28.61
51178;BME280;37243;49.814;8.652;2023-02-13T06:37:28;102303.56;;;25.88;28.14
51178;BME280;37243;49.814;8.652;2023-02-13T06:39:56;102298.91;;;25.88;28.81
51178;BME280;37243;49.814;8.652;2023-02-13T06:42:27;102301.66;;;25.88;28.64
51178;BME280;37243;49.814;8.652;2023-02-13T06:44:55;102302.44;;;25.89;28.18
51178;BME280;37243;49.814;8.652;2023-02-13T06:47:23;102301.38;;;25.90;28.25
51178;BME280;37243;49.814;8.652;2023-02-13T06:49:52;102300.53;;;25.89;28.42
51178;BME280;37243;49.814;8.652;2023-02-13T06:52:20;102309.91;;;25.88;28.37
51178;BME280;37243;49.814;8.652;2023-02-13T06:54:48;102307.16;;;25.88;28.41
51178;BME280;37243;49.814;8.652;2023-02-13T06:57:16;102305.19;;;25.89;28.70
51178;BME280;37243;49.814;8.652;2023-02-13T06:59:47;102299.69;;;25.89;28.26
51178;BME280;37243;49.814;8.652;2023-02-13T07:02:16;102305.19;;;25.89;28.33
51178;BME280;37243;49.814;8.652;2023-02-13T07:04:44;102309.91;;;25.88;28.76
51178;BME280;37243;49.814;8.652;2023-02-13T07:07:12;102306.31;;;25.88;28.35
51178;BME280;37243;49.814;8.652;2023-02-13T07:09:40;102310.69;;;25.89;28.63
51178;BME280;37243;49.814;8.652;2023-02-13T07:12:09;102312.34;;;25.90;29.01
51178;BME280;37243;49.814;8.652;2023-02-13T07:14:37;102311.53;;;25.89;29.03
51178;BME280;37243;49.814;8.652;2023-02-13T07:17:08;102306.03;;;25.89;28.43
51178;BME280;37243;49.814;8.652;2023-02-13T07:19:37;102317.03;;;25.89;28.45
51178;BME280;37243;49.814;8.652;2023-02-13T07:22:05;102315.41;;;25.88;28.64
51178;BME280;37243;49.814;8.652;2023-02-13T07:24:33;102317.03;;;25.89;29.12
51178;BME280;37243;49.814;8.652;2023-02-13T07:27:03;102321.69;;;25.89;28.88
51178;BME280;37243;49.814;8.652;2023-02-13T07:29:31;102317.03;;;25.89;28.62
51178;BME280;37243;49.814;8.652;2023-02-13T07:31:59;102324.44;;;25.89;28.68
51178;BME280;37243;49.814;8.652;2023-02-13T07:34:30;102319.78;;;25.89;28.70
51178;BME280;37243;49.814;8.652;2023-02-13T07:36:58;102317.03;;;25.89;28.68
51178;BME280;37243;49.814;8.652;2023-02-13T07:39:26;102323.34;;;25.90;28.51
51178;BME280;37243;49.814;8.652;2023-02-13T07:41:56;102322.53;;;25.89;28.75
51178;BME280;37243;49.814;8.652;2023-02-13T07:44:24;102310.44;;;25.90;28.77
51178;BME280;37243;49.814;8.652;2023-02-13T07:46:52;102312.34;;;25.90;28.41
51178;BME280;37243;49.814;8.652;2023-02-13T07:49:21;102316.78;;;25.91;29.08
51178;BME280;37243;49.814;8.652;2023-02-13T07:51:51;102319.22;;;25.92;28.99
51178;BME280;37243;49.814;8.652;2023-02-13T07:54:20;102314.03;;;25.91;28.41
51178;BME280;37243;49.814;8.652;2023-02-13T07:56:48;102321.44;;;25.90;28.39
51178;BME280;37243;49.814;8.652;2023-02-13T07:59:17;102332.16;;;25.92;29.03
51178;BME280;37243;49.814;8.652;2023-02-13T08:01:45;102324.19;;;25.90;28.91
51178;BME280;37243;49.814;8.652;2023-02-13T08:04:13;102330.53;;;25.91;28.74
51178;BME280;37243;49.814;8.652;2023-02-13T08:06:42;102325.03;;;25.91;28.80
51178;BME280;37243;49.814;8.652;2023-02-13T08:09:18;102333.25;;;25.91;29.19
51178;BME280;37243;49.814;8.652;2023-02-13T08:11:59;102330.53;;;25.91;28.91
51178;BME280;37243;49.814;8.652;2023-02-13T08:14:27;102334.91;;;25.92;29.14
51178;BME280;37243;49.814;8.652;2023-02-13T08:16:57;102327.47;;;25.92;28.87
51178;BME280;37243;49.814;8.652;2023-02-13T08:19:26;102327.47;;;25.92;28.42
51178;BME280;37243;49.814;8.652;2023-02-13T08:21:55;102325.84;;;25.91;29.03
51178;BME280;37243;49.814;8.652;2023-02-13T08:24:26;102338.47;;;25.92;29.12
51178;BME280;37243;49.814;8.652;2023-02-13T08:26:55;102334.63;;;25.93;28.93
51178;BME280;37243;49.814;8.652;2023-02-13T08:29:23;102336.84;;;25.91;28.43
51178;BME280;37243;49.814;8.652;2023-02-13T08:31:51;102336.84;;;25.91;28.85
51178;BME280;37243;49.814;8.652;2023-02-13T08:34:19;102336.56;;;25.93;28.42
51178;BME280;37243;49.814;8.652;2023-02-13T08:36:48;102333.50;;;25.94;28.75
51178;BME280;37243;49.814;8.652;2023-02-13T08:39:16;102336.56;;;25.93;28.75
51178;BME280;37243;49.814;8.652;2023-02-13T08:41:47;102330.75;;;25.94;28.45
51178;BME280;37243;49.814;8.652;2023-02-13T08:44:15;102335.47;;;25.94;28.70
51178;BME280;37243;49.814;8.652;2023-02-13T08:46:43;102338.22;;;25.94;28.65
51178;BME280;37243;49.814;8.652;2023-02-13T08:49:12;102335.47;;;25.94;28.87
51178;BME280;37243;49.814;8.652;2023-02-13T08:51:40;102337.09;;;25.95;28.63
51178;BME280;37243;49.814;8.652;2023-02-13T08:54:08;102341.50;;;25.96;28.97
51178;BME280;37243;49.814;8.652;2023-02-13T08:56:36;102332.72;;;25.94;29.47
51178;BME280;37243;49.814;8.652;2023-02-13T08:59:07;102335.19;;;25.95;29.34
51178;BME280;37243;49.814;8.652;2023-02-13T09:01:36;102337.09;;;25.95;28.64
51178;BME280;37243;49.814;8.652;2023-02-13T09:04:04;102328.84;;;25.95;29.34
51178;BME280;37243;49.814;8.652;2023-02-13T09:06:32;102334.09;;;25.97;29.14
51178;BME280;37243;49.814;8.652;2023-02-13T09:09:01;102334.91;;;25.97;29.21
51178;BME280;37243;49.814;8.652;2023-02-13T09:11:29;102323.91;;;25.97;28.71
51178;BME280;37243;49.814;8.652;2023-02-13T09:13:58;102331.03;;;25.98;29.34
51178;BME280;37243;49.814;8.652;2023-02-13T09:16:29;102332.16;;;25.97;29.05
51178;BME280;37243;49.814;8.652;2023-02-13T09:18:57;102328.59;;;25.97;28.86
51178;BME280;37243;49.814;8.652;2023-02-13T09:21:25;102324.72;;;25.98;29.11
51178;BME280;37243;49.814;8.652;2023-02-13T09:23:55;102326.38;;;25.99;29.13
51178;BME280;37243;49.814;8.652;2023-02-13T09:26:24;102325.53;;;25.98;29.28
51178;BME280;37243;49.814;8.652;2023-02-13T09:28:52;102328.03;;;26.00;29.29
51178;BME280;37243;49.814;8.652;2023-02-13T09:31:20;102330.50;;;26.01;28.85
51178;BME280;37243;49.814;8.652;2023-02-13T09:33:52;102327.75;;;26.01;29.45
51178;BME280;37243;49.814;8.652;2023-02-13T09:36:22;102319.50;;;26.01;28.86
51178;BME280;37243;49.814;8.652;2023-02-13T09:38:53;102323.34;;;26.00;28.92
51178;BME280;37243;49.814;8.652;2023-02-13T09:41:23;102324.16;;;26.01;29.36
51178;BME280;37243;49.814;8.652;2023-02-13T09:43:55;102331.31;;;26.02;29.24
51178;BME280;37243;49.814;8.652;2023-02-13T09:46:30;102325.81;;;26.02;29.32
51178;BME280;37243;49.814;8.652;2023-02-13T09:49:07;102333.25;;;26.01;28.99
51178;BME280;37243;49.814;8.652;2023-02-13T09:51:37;102329.41;;;26.02;29.46
51178;BME280;37243;49.814;8.652;2023-02-13T09:54:07;102330.50;;;26.01;29.62
51178;BME280;37243;49.814;8.652;2023-02-13T09:56:39;102334.91;;;26.02;29.15
51178;BME280;37243;49.814;8.652;2023-02-13T09:59:24;102336.56;;;26.03;29.68
51178;BME280;37243;49.814;8.652;2023-02-13T10:02:00;102339.00;;;26.05;29.16
51178;BME280;37243;49.814;8.652;2023-02-13T10:04:40;102340.09;;;26.04;29.21
51178;BME280;37243;49.814;8.652;2023-02-13T10:07:17;102335.44;;;26.04;29.59
51178;BME280;37243;49.814;8.652;2023-02-13T10:09:54;102342.59;;;26.05;29.02
51178;BME280;37243;49.814;8.652;2023-02-13T10:12:38;102337.09;;;26.05;28.96
51178;BME280;37243;49.814;8.652;2023-02-13T10:15:21;102341.47;;;26.06;29.55
51178;BME280;37243;49.814;8.652;2023-02-13T10:17:56;102330.47;;;26.06;29.71
51178;BME280;37243;49.814;8.652;2023-02-13T10:20:31;102334.88;;;26.07;29.01
51178;BME280;37243;49.814;8.652;2023-02-13T10:23:15;102334.06;;;26.07;29.32
51178;BME280;37243;49.814;8.652;2023-02-13T10:25:48;102331.03;;;26.08;29.19
51178;BME280;37243;49.814;8.652;2023-02-13T10:28:27;102324.72;;;26.08;29.29
51178;BME280;37243;49.814;8.652;2023-02-13T10:31:02;102321.66;;;26.09;29.31
51178;BME280;37243;49.814;8.652;2023-02-13T10:33:35;102327.16;;;26.09;29.13
51178;BME280;37243;49.814;8.652;2023-02-13T10:36:14;102324.16;;;26.11;29.59
51178;BME280;37243;49.814;8.652;2023-02-13T10:38:50;102323.31;;;26.10;29.28
51178;BME280;37243;49.814;8.652;2023-02-13T10:41:24;102319.47;;;26.11;29.02
51178;BME280;37243;49.814;8.652;2023-02-13T10:44:07;102319.75;;;26.10;29.39
51178;BME280;37243;49.814;8.652;2023-02-13T10:46:49;102318.66;;;26.11;29.31
51178;BME280;37243;49.814;8.652;2023-02-13T10:52:38;102307.66;;;26.11;29.18
51178;BME280;37243;49.814;8.652;2023-02-13T10:55:37;102313.97;;;26.11;29.67
51178;BME280;37243;49.814;8.652;2023-02-13T10:58:16;102306.25;;;26.13;29.05
51178;BME280;37243;49.814;8.652;2023-02-13T11:00:48;102309.00;;;26.13;29.07
51178;BME280;37243;49.814;8.652;2023-02-13T11:03:23;102296.94;;;26.14;29.73
51178;BME280;37243;49.814;8.652;2023-02-13T11:05:54;102295.25;;;26.13;29.72
51178;BME280;37243;49.814;8.652;2023-02-13T11:08:31;102298.00;;;26.13;29.56
51178;BME280;37243;49.814;8.652;2023-02-13T11:11:00;102288.94;;;26.13;29.62
51178;BME280;37243;49.814;8.652;2023-02-13T11:13:30;102296.94;;;26.14;29.64
51178;BME280;37243;49.814;8.652;2023-02-13T11:16:01;102290.31;;;26.15;29.10
51178;BME280;37243;49.814;8.652;2023-02-13T11:18:32;102286.75;;;26.15;29.36
51178;BME280;37243;49.814;8.652;2023-02-13T11:21:05;102282.06;;;26.15;29.44
51178;BME280;37243;49.814;8.652;2023-02-13T11:23:40;102282.91;;;26.16;29.61
51178;BME280;37243;49.814;8.652;2023-02-13T11:26:11;102277.41;;;26.16;29.59
51178;BME280;37243;49.814;8.652;2023-02-13T11:28:47;102279.88;;;26.17;29.41
51178;BME280;37243;49.814;8.652;2023-02-13T11:31:24;102272.72;;;26.16;28.96
51178;BME280;37243;49.814;8.652;2023-02-13T11:33:54;102270.81;;;26.17;29.31
51178;BME280;37243;49.814;8.652;2023-02-13T11:36:25;102271.63;;;26.17;29.55
51178;BME280;37243;49.814;8.652;2023-02-13T11:39:02;102270.81;;;26.17;29.72
51178;BME280;37243;49.814;8.652;2023-02-13T11:41:36;102264.47;;;26.16;29.68
51178;BME280;37243;49.814;8.652;2023-02-13T11:44:18;102268.88;;;26.17;29.63
51178;BME280;37243;49.814;8.652;2023-02-13T11:46:49;102261.44;;;26.18;29.71
51178;BME280;37243;49.814;8.652;2023-02-13T11:49:21;102262.25;;;26.18;29.76
51178;BME280;37243;49.814;8.652;2023-02-13T11:51:51;102264.19;;;26.18;29.06
51178;BME280;37243;49.814;8.652;2023-02-13T11:54:27;102266.94;;;26.18;29.37
51178;BME280;37243;49.814;8.652;2023-02-13T11:56:58;102265.00;;;26.18;29.83
51178;BME280;37243;49.814;8.652;2023-02-13T11:59:30;102260.34;;;26.19;29.64
51178;BME280;37243;49.814;8.652;2023-02-13T12:02:10;102255.66;;;26.19;29.30
51178;BME280;37243;49.814;8.652;2023-02-13T12:04:40;102266.66;;;26.19;29.38
51178;BME280;37243;49.814;8.652;2023-02-13T12:07:17;102261.16;;;26.19;29.05
51178;BME280;37243;49.814;8.652;2023-02-13T12:09:51;102253.75;;;26.20;29.35
51178;BME280;37243;49.814;8.652;2023-02-13T12:12:25;102257.31;;;26.20;29.62
51178;BME280;37243;49.814;8.652;2023-02-13T12:14:56;102258.13;;;26.21;29.11
51178;BME280;37243;49.814;8.652;2023-02-13T12:17:27;102262.81;;;26.20;29.71
51178;BME280;37243;49.814;8.652;2023-02-13T12:19:57;102249.06;;;26.20;29.37
51178;BME280;37243;49.814;8.652;2023-02-13T12:22:41;102257.31;;;26.20;29.33
51178;BME280;37243;49.814;8.652;2023-02-13T12:25:35;102247.41;;;26.19;29.09
51178;BME280;37243;49.814;8.652;2023-02-13T12:28:11;102245.19;;;26.21;29.02
51178;BME280;37243;49.814;8.652;2023-02-13T12:30:54;102246.31;;;26.20;29.04
51178;BME280;37243;49.814;8.652;2023-02-13T12:33:39;102246.31;;;26.20;29.51
51178;BME280;37243;49.814;8.652;2023-02-13T12:36:15;102243.56;;;26.20;29.83
51178;BME280;37243;49.814;8.652;2023-02-13T12:39:00;102242.44;;;26.21;29.33
51178;BME280;37243;49.814;8.652;2023-02-13T12:41:39;102245.75;;;26.23;29.70
51178;BME280;37243;49.814;8.652;2023-02-13T12:44:37;102235.31;;;26.20;29.07
51178;BME280;37243;49.814;8.652;2023-02-13T12:47:14;102231.44;;;26.21;29.08
51178;BME280;37243;49.814;8.652;2023-02-13T12:49:59;102228.69;;;26.21;29.71
51178;BME280;37243;49.814;8.652;2023-02-13T12:52:38;102235.00;;;26.22;29.19
51178;BME280;37243;49.814;8.652;2023-02-13T12:55:21;102231.44;;;26.21;29.21
51178;BME280;37243;49.814;8.652;2023-02-13T12:58:11;102226.75;;;26.22;29.01
51178;BME280;37243;49.814;8.652;2023-02-13T13:00:50;102223.19;;;26.21;29.78
51178;BME280;37243;49.814;8.652;2023-02-13T13:03:38;102221.25;;;26.22;29.80
51178;BME280;37243;49.814;8.652;2023-02-13T13:06:31;102214.09;;;26.21;29.71
51178;BME280;37243;49.814;8.652;2023-02-13T13:09:10;102216.59;;;26.22;29.82
51178;BME280;37243;49.814;8.652;2023-02-13T13:12:03;102214.09;;;26.21;29.32
51178;BME280;37243;49.814;8.652;2023-02-13T13:14:42;102211.09;;;26.22;29.48
51178;BME280;37243;49.814;8.652;2023-02-13T13:17:23;102212.75;;;26.23;29.20
51178;BME280;37243;49.814;8.652;2023-02-13T13:20:01;102202.53;;;26.24;29.70
51178;BME280;37243;49.814;8.652;2023-02-13T13:22:37;102202.53;;;26.24;29.09
51178;BME280;37243;49.814;8.652;2023-02-13T13:25:11;102197.88;;;26.24;29.57
51178;BME280;37243;49.814;8.652;2023-02-13T13:27:46;102191.53;;;26.24;29.85
51178;BME280;37243;49.814;8.652;2023-02-13T13:30:21;102199.00;;;26.23;29.89